createdAt,value
2016-12-20T00:00:13.285Z,0
2016-12-20T00:01:13.311Z,0
2016-12-20T00:02:28.236Z,0
2016-12-20T00:03:28.251Z,0
2016-12-20T00:04:13.347Z,0
2016-12-20T00:05:13.397Z,0
2016-12-20T00:06:13.387Z,0
2016-12-20T00:07:13.399Z,0
2016-12-20T00:09:13.430Z,0
2016-12-20T00:10:13.450Z,0
2016-12-20T00:11:13.465Z,0
2016-12-20T00:12:28.397Z,0
2016-12-20T00:13:13.496Z,0
2016-12-20T00:14:13.511Z,0
2016-12-20T00:15:13.524Z,0
2016-12-20T00:16:13.547Z,0
2016-12-20T00:17:13.564Z,0
2016-12-20T00:18:13.575Z,0
2016-12-20T00:19:28.513Z,0
2016-12-20T00:20:13.608Z,0
2016-12-20T00:21:13.626Z,0
2016-12-20T00:23:13.665Z,0
2016-12-20T00:24:13.678Z,0
2016-12-20T00:25:13.689Z,0
2016-12-20T00:26:13.706Z,0
2016-12-20T00:27:28.641Z,0
2016-12-20T00:28:13.747Z,0
2016-12-20T00:29:13.754Z,0
2016-12-20T00:30:13.771Z,0
2016-12-20T00:31:13.787Z,0
2016-12-20T00:32:13.804Z,0
2016-12-20T00:33:13.819Z,0
2016-12-20T00:34:13.835Z,0
2016-12-20T00:35:13.854Z,0
2016-12-20T00:36:13.867Z,0
2016-12-20T00:37:13.886Z,0
2016-12-20T00:38:13.907Z,0
2016-12-20T00:40:28.849Z,0
2016-12-20T00:42:13.965Z,0
2016-12-20T00:43:13.979Z,0
2016-12-20T00:44:13.996Z,0
2016-12-20T00:45:14.012Z,0
2016-12-20T00:46:14.028Z,0
2016-12-20T00:47:14.045Z,0
2016-12-20T00:48:14.059Z,0
2016-12-20T00:49:14.117Z,0
2016-12-20T00:50:14.094Z,0
2016-12-20T00:51:14.108Z,0
2016-12-20T00:52:14.130Z,0
2016-12-20T00:53:14.142Z,0
2016-12-20T00:54:29.075Z,0
2016-12-20T00:55:29.096Z,0
2016-12-20T00:56:14.192Z,0
2016-12-20T00:57:14.205Z,0
2016-12-20T00:58:14.254Z,0
2016-12-20T00:59:29.165Z,0
2016-12-20T01:00:14.258Z,0
2016-12-20T01:01:14.272Z,0
2016-12-20T01:02:14.290Z,0
2016-12-20T01:03:14.301Z,0
2016-12-20T01:04:29.238Z,0
2016-12-20T01:05:29.253Z,0
2016-12-20T01:06:14.353Z,0
2016-12-20T01:07:14.369Z,0
2016-12-20T01:08:14.390Z,0
2016-12-20T01:09:29.320Z,0
2016-12-20T01:10:14.423Z,0
2016-12-20T01:11:14.433Z,0
2016-12-20T01:12:14.453Z,0
2016-12-20T01:13:14.465Z,0
2016-12-20T01:14:14.482Z,0
2016-12-20T01:15:29.416Z,0
2016-12-20T01:16:14.516Z,0
2016-12-20T01:17:14.535Z,0
2016-12-20T01:18:14.545Z,0
2016-12-20T01:19:29.480Z,0
2016-12-20T01:20:14.576Z,0
2016-12-20T01:21:29.512Z,0
2016-12-20T01:22:14.609Z,0
2016-12-20T01:23:14.626Z,0
2016-12-20T01:24:14.643Z,0
2016-12-20T01:25:29.577Z,0
2016-12-20T01:26:14.676Z,0
2016-12-20T01:28:14.708Z,0
2016-12-20T01:29:14.726Z,0
2016-12-20T01:30:14.740Z,0
2016-12-20T01:31:29.672Z,0
2016-12-20T01:32:14.771Z,0
2016-12-20T01:33:14.790Z,0
2016-12-20T01:34:14.801Z,0
2016-12-20T01:35:29.739Z,0
2016-12-20T01:36:14.834Z,0
2016-12-20T01:37:14.850Z,0
2016-12-20T01:38:14.878Z,0
2016-12-20T01:39:14.883Z,0
2016-12-20T01:40:14.900Z,0
2016-12-20T01:41:14.920Z,0
2016-12-20T01:42:29.900Z,0
2016-12-20T01:43:14.953Z,0
2016-12-20T01:44:14.965Z,0
2016-12-20T01:45:14.981Z,0
2016-12-20T01:46:14.997Z,0
2016-12-20T01:47:29.930Z,0
2016-12-20T01:48:15.032Z,0
2016-12-20T01:49:15.044Z,0
2016-12-20T01:50:15.066Z,0
2016-12-20T01:52:15.096Z,0
2016-12-20T01:53:15.107Z,0
2016-12-20T01:54:15.127Z,0
2016-12-20T01:55:30.057Z,0
2016-12-20T01:56:15.163Z,0
2016-12-20T01:57:15.172Z,0
2016-12-20T01:59:15.205Z,0
2016-12-20T02:00:15.220Z,0
2016-12-20T02:01:15.236Z,0
2016-12-20T02:02:30.174Z,0
2016-12-20T02:03:15.270Z,0
2016-12-20T02:04:15.320Z,0
2016-12-20T02:05:15.303Z,0
2016-12-20T02:06:30.237Z,0
2016-12-20T02:07:30.253Z,0
2016-12-20T02:08:15.400Z,0
2016-12-20T02:09:30.283Z,0
2016-12-20T02:10:15.380Z,0
2016-12-20T02:11:15.399Z,0
2016-12-20T02:12:15.413Z,0
2016-12-20T02:14:15.448Z,0
2016-12-20T02:15:15.462Z,0
2016-12-20T02:16:15.481Z,0
2016-12-20T02:17:15.532Z,0
2016-12-20T02:18:15.521Z,0
2016-12-20T02:19:15.531Z,0
2016-12-20T02:20:15.541Z,0
2016-12-20T02:21:15.557Z,0
2016-12-20T02:22:15.575Z,0
2016-12-20T02:23:30.508Z,0
2016-12-20T02:24:15.605Z,0
2016-12-20T02:25:15.624Z,0
2016-12-20T02:26:15.637Z,0
2016-12-20T02:27:15.657Z,0
2016-12-20T02:28:15.983Z,0
2016-12-20T02:29:30.604Z,0
2016-12-20T02:30:15.704Z,0
2016-12-20T02:31:15.716Z,0
2016-12-20T02:32:15.735Z,0
2016-12-20T02:33:15.752Z,0
2016-12-20T02:34:30.682Z,0
2016-12-20T02:35:15.783Z,0
2016-12-20T02:36:15.797Z,0
2016-12-20T02:37:30.735Z,0
2016-12-20T02:38:15.834Z,0
2016-12-20T02:39:15.852Z,0
2016-12-20T02:40:15.864Z,0
2016-12-20T02:41:15.875Z,0
2016-12-20T02:43:15.909Z,0
2016-12-20T02:44:15.924Z,0
2016-12-20T02:45:30.859Z,0
2016-12-20T02:46:15.963Z,0
2016-12-20T02:47:15.975Z,0
2016-12-20T02:48:15.994Z,0
2016-12-20T02:49:16.011Z,0
2016-12-20T02:50:30.940Z,0
2016-12-20T02:51:16.039Z,0
2016-12-20T02:52:16.054Z,0
2016-12-20T02:53:16.071Z,0
2016-12-20T02:54:16.087Z,0
2016-12-20T02:55:16.100Z,0
2016-12-20T02:56:16.118Z,0
2016-12-20T02:57:16.135Z,0
2016-12-20T02:58:31.069Z,0
2016-12-20T02:59:16.164Z,0
2016-12-20T03:00:16.182Z,0
2016-12-20T03:01:16.201Z,0
2016-12-20T03:02:16.214Z,0
2016-12-20T03:03:16.233Z,0
2016-12-20T03:04:16.255Z,0
2016-12-20T03:05:16.268Z,0
2016-12-20T03:06:31.225Z,0
2016-12-20T03:07:16.294Z,0
2016-12-20T03:08:16.310Z,0
2016-12-20T03:09:16.333Z,0
2016-12-20T03:10:16.342Z,0
2016-12-20T03:11:16.357Z,0
2016-12-20T03:12:31.290Z,0
2016-12-20T03:13:16.389Z,0
2016-12-20T03:15:16.421Z,0
2016-12-20T03:16:16.437Z,0
2016-12-20T03:19:16.482Z,0
2016-12-20T03:20:16.505Z,0
2016-12-20T03:21:16.518Z,0
2016-12-20T03:22:31.452Z,0
2016-12-20T03:23:16.548Z,0
2016-12-20T03:24:16.564Z,0
2016-12-20T03:25:16.579Z,0
2016-12-20T03:26:31.516Z,0
2016-12-20T03:27:16.613Z,0
2016-12-20T03:28:16.632Z,0
2016-12-20T03:30:16.658Z,0
2016-12-20T03:31:16.675Z,0
2016-12-20T03:32:31.610Z,0
2016-12-20T03:35:16.773Z,0
2016-12-20T03:36:16.758Z,0
2016-12-20T03:37:31.697Z,0
2016-12-20T03:38:16.824Z,0
2016-12-20T03:39:16.804Z,0
2016-12-20T03:40:16.820Z,0
2016-12-20T03:41:16.873Z,0
2016-12-20T03:42:16.853Z,0
2016-12-20T03:43:16.872Z,0
2016-12-20T03:44:16.881Z,0
2016-12-20T03:45:16.896Z,0
2016-12-20T03:46:16.914Z,0
2016-12-20T03:50:16.976Z,0
2016-12-20T03:51:16.992Z,0
2016-12-20T03:52:17.005Z,0
2016-12-20T03:53:31.948Z,0
2016-12-20T03:54:17.036Z,0
2016-12-20T03:55:17.054Z,0
2016-12-20T03:56:17.068Z,0
2016-12-20T03:57:17.082Z,0
2016-12-20T03:58:17.101Z,0
2016-12-20T03:59:17.115Z,0
2016-12-20T04:00:17.132Z,0
2016-12-20T04:01:17.147Z,0
2016-12-20T04:02:17.162Z,0
2016-12-20T04:03:17.176Z,0
2016-12-20T04:04:17.195Z,0
2016-12-20T04:05:32.129Z,0
2016-12-20T04:06:17.250Z,0
2016-12-20T04:07:17.237Z,0
2016-12-20T04:08:17.580Z,0
2016-12-20T04:09:32.187Z,0
2016-12-20T04:10:17.284Z,0
2016-12-20T04:11:17.305Z,0
2016-12-20T04:12:32.235Z,0
2016-12-20T04:13:17.330Z,0
2016-12-20T04:14:32.263Z,0
2016-12-20T04:15:17.360Z,0
2016-12-20T04:16:17.376Z,0
2016-12-20T04:17:17.430Z,0
2016-12-20T04:18:17.404Z,0
2016-12-20T04:19:17.419Z,0
2016-12-20T04:20:17.448Z,0
2016-12-20T04:21:17.452Z,0
2016-12-20T04:22:17.467Z,0
2016-12-20T04:23:17.480Z,0
2016-12-20T04:24:17.497Z,0
2016-12-20T04:25:32.428Z,0
2016-12-20T04:26:17.528Z,0
2016-12-20T04:27:17.539Z,0
2016-12-20T04:28:17.559Z,0
2016-12-20T04:29:32.490Z,0
2016-12-20T04:30:17.584Z,0
2016-12-20T04:31:17.906Z,0
2016-12-20T04:32:17.617Z,0
2016-12-20T04:33:17.632Z,0
2016-12-20T04:34:17.671Z,0
2016-12-20T04:36:17.681Z,0
2016-12-20T04:37:32.610Z,0
2016-12-20T04:38:17.708Z,0
2016-12-20T04:39:17.721Z,0
2016-12-20T04:40:17.739Z,0
2016-12-20T04:41:32.668Z,0
2016-12-20T04:42:17.766Z,0
2016-12-20T04:43:17.812Z,0
2016-12-20T04:44:17.799Z,0
2016-12-20T04:45:17.809Z,0
2016-12-20T04:46:17.829Z,0
2016-12-20T04:47:17.841Z,0
2016-12-20T04:48:17.858Z,0
2016-12-20T04:49:17.871Z,0
2016-12-20T04:50:17.883Z,0
2016-12-20T04:51:17.900Z,0
2016-12-20T04:52:17.914Z,0
2016-12-20T04:54:17.947Z,0
2016-12-20T04:55:17.960Z,0
2016-12-20T04:56:17.974Z,0
2016-12-20T04:57:32.909Z,0
2016-12-20T04:58:18.008Z,0
2016-12-20T04:59:18.018Z,0
2016-12-20T05:00:18.048Z,0
2016-12-20T05:01:18.050Z,0
2016-12-20T05:02:18.066Z,0
2016-12-20T05:03:18.106Z,0
2016-12-20T05:04:18.096Z,0
2016-12-20T05:05:33.024Z,0
2016-12-20T05:06:18.126Z,0
2016-12-20T05:07:18.137Z,0
2016-12-20T05:08:33.070Z,0
2016-12-20T05:09:18.174Z,0
2016-12-20T05:10:18.187Z,0
2016-12-20T05:11:18.202Z,0
2016-12-20T05:12:33.130Z,0
2016-12-20T05:13:18.227Z,0
2016-12-20T05:14:18.243Z,0
2016-12-20T05:15:18.255Z,0
2016-12-20T05:16:18.273Z,0
2016-12-20T05:17:18.285Z,0
2016-12-20T05:18:18.301Z,0
2016-12-20T05:19:18.323Z,0
2016-12-20T05:20:18.330Z,0
2016-12-20T05:21:18.647Z,0
2016-12-20T05:22:18.363Z,0
2016-12-20T05:23:33.292Z,0
2016-12-20T05:24:18.390Z,0
2016-12-20T05:25:18.403Z,0
2016-12-20T05:26:18.419Z,0
2016-12-20T05:27:18.436Z,0
2016-12-20T05:28:18.757Z,0
2016-12-20T05:29:18.463Z,0
2016-12-20T05:30:18.475Z,0
2016-12-20T05:31:18.498Z,0
2016-12-20T05:32:18.507Z,0
2016-12-20T05:33:18.522Z,0
2016-12-20T05:34:18.839Z,0
2016-12-20T05:35:33.499Z,0
2016-12-20T05:36:18.562Z,0
2016-12-20T05:38:33.512Z,0
2016-12-20T05:40:33.540Z,0
2016-12-20T05:41:18.636Z,0
2016-12-20T05:42:18.659Z,0
2016-12-20T05:43:18.663Z,0
2016-12-20T05:44:33.600Z,0
2016-12-20T05:45:18.695Z,0
2016-12-20T05:46:18.707Z,0
2016-12-20T05:47:18.726Z,0
2016-12-20T05:48:18.738Z,0
2016-12-20T05:49:18.756Z,0
2016-12-20T05:50:18.768Z,0
2016-12-20T05:51:18.782Z,0
2016-12-20T05:52:18.795Z,0
2016-12-20T05:54:18.823Z,0
2016-12-20T05:55:33.757Z,0
2016-12-20T05:57:18.878Z,0
2016-12-20T05:58:18.883Z,0
2016-12-20T05:59:18.898Z,0
2016-12-20T06:00:33.830Z,0
2016-12-20T06:01:18.928Z,0
2016-12-20T06:02:18.940Z,0
2016-12-20T06:03:19.258Z,0
2016-12-20T06:04:33.889Z,0
2016-12-20T06:05:33.902Z,0
2016-12-20T06:06:18.996Z,0
2016-12-20T06:07:19.011Z,0
2016-12-20T06:09:19.042Z,0
2016-12-20T06:10:19.059Z,0
2016-12-20T06:11:19.073Z,0
2016-12-20T06:12:19.087Z,0
2016-12-20T06:13:19.102Z,0
2016-12-20T06:14:19.120Z,0
2016-12-20T06:15:19.130Z,0
2016-12-20T06:16:34.058Z,0
2016-12-20T06:17:19.158Z,0
2016-12-20T06:18:19.170Z,0
2016-12-20T06:19:19.189Z,0
2016-12-20T06:20:19.198Z,0
2016-12-20T06:21:19.218Z,0
2016-12-20T06:22:19.228Z,0
2016-12-20T06:23:19.246Z,0
2016-12-20T06:25:19.274Z,0
2016-12-20T06:26:34.204Z,0
2016-12-20T06:27:19.303Z,0
2016-12-20T06:28:19.319Z,0
2016-12-20T06:29:19.332Z,0
2016-12-20T06:30:19.351Z,0
2016-12-20T06:31:19.362Z,0
2016-12-20T06:32:34.290Z,0
2016-12-20T06:33:19.387Z,0
2016-12-20T06:34:19.403Z,0
2016-12-20T06:35:19.430Z,0
2016-12-20T06:36:19.432Z,0
2016-12-20T06:37:34.370Z,0
2016-12-20T06:38:34.377Z,0
2016-12-20T06:39:19.472Z,4
2016-12-20T06:40:19.489Z,4
2016-12-20T06:42:19.521Z,0
2016-12-20T06:43:19.534Z,4
2016-12-20T06:45:19.567Z,0
2016-12-20T06:46:19.576Z,4
2016-12-20T06:47:34.507Z,4
2016-12-20T06:48:19.638Z,4
2016-12-20T06:49:19.620Z,4
2016-12-20T06:50:34.554Z,8
2016-12-20T06:51:19.650Z,4
2016-12-20T06:52:19.669Z,8
2016-12-20T06:53:19.675Z,8
2016-12-20T06:54:19.694Z,8
2016-12-20T06:55:19.709Z,12
2016-12-20T06:56:19.719Z,12
2016-12-20T06:57:19.734Z,12
2016-12-20T06:58:34.666Z,16
2016-12-20T06:59:19.763Z,16
2016-12-20T07:00:19.782Z,16
2016-12-20T07:01:19.791Z,24
2016-12-20T07:02:19.806Z,20
2016-12-20T07:03:20.122Z,24
2016-12-20T07:04:19.834Z,28
2016-12-20T07:05:19.848Z,28
2016-12-20T07:06:19.864Z,32
2016-12-20T07:07:19.883Z,36
2016-12-20T07:08:19.890Z,40
2016-12-20T07:09:19.907Z,44
2016-12-20T07:10:19.925Z,44
2016-12-20T07:11:34.852Z,52
2016-12-20T07:12:19.955Z,52
2016-12-20T07:13:34.884Z,60
2016-12-20T07:14:34.898Z,64
2016-12-20T07:15:19.997Z,68
2016-12-20T07:16:20.009Z,68
2016-12-20T07:17:20.031Z,76
2016-12-20T07:18:20.038Z,80
2016-12-20T07:19:34.969Z,84
2016-12-20T07:20:20.069Z,92
2016-12-20T07:21:20.082Z,96
2016-12-20T07:22:20.095Z,100
2016-12-20T07:23:20.111Z,104
2016-12-20T07:24:35.041Z,112
2016-12-20T07:25:20.136Z,116
2016-12-20T07:26:20.152Z,124
2016-12-20T07:27:20.165Z,128
2016-12-20T07:28:20.186Z,132
2016-12-20T07:29:20.193Z,136
2016-12-20T07:31:20.230Z,156
2016-12-20T07:32:20.242Z,160
2016-12-20T07:33:20.253Z,168
2016-12-20T07:34:20.267Z,176
2016-12-20T07:35:50.118Z,192
2016-12-20T07:36:20.291Z,188
2016-12-20T07:37:20.314Z,200
2016-12-20T07:38:20.328Z,204
2016-12-20T07:39:20.335Z,216
2016-12-20T07:40:20.351Z,216
2016-12-20T07:41:20.403Z,228
2016-12-20T07:42:20.382Z,232
2016-12-20T07:43:20.698Z,264
2016-12-20T07:44:20.408Z,284
2016-12-20T07:45:35.340Z,268
2016-12-20T07:46:20.434Z,268
2016-12-20T07:47:20.455Z,292
2016-12-20T07:48:20.467Z,312
2016-12-20T07:49:20.477Z,332
2016-12-20T07:50:20.490Z,336
2016-12-20T07:51:35.426Z,344
2016-12-20T07:52:20.518Z,340
2016-12-20T07:53:20.538Z,340
2016-12-20T07:54:20.550Z,332
2016-12-20T07:55:20.568Z,352
2016-12-20T07:56:35.497Z,352
2016-12-20T07:57:35.509Z,360
2016-12-20T07:58:20.609Z,384
2016-12-20T07:59:20.622Z,440
2016-12-20T08:00:20.639Z,480
2016-12-20T08:01:20.647Z,460
2016-12-20T08:02:20.666Z,480
2016-12-20T08:03:20.683Z,492
2016-12-20T08:04:20.692Z,508
2016-12-20T08:05:20.717Z,520
2016-12-20T08:06:20.754Z,520
2016-12-20T08:07:35.653Z,592
2016-12-20T08:08:20.753Z,656
2016-12-20T08:09:20.765Z,584
2016-12-20T08:10:20.776Z,576
2016-12-20T08:11:21.095Z,600
2016-12-20T08:12:20.805Z,616
2016-12-20T08:13:20.824Z,620
2016-12-20T08:14:20.851Z,596
2016-12-20T08:16:20.892Z,568
2016-12-20T08:17:20.878Z,600
2016-12-20T08:18:35.809Z,656
2016-12-20T08:19:20.910Z,696
2016-12-20T08:20:20.921Z,664
2016-12-20T08:21:20.936Z,720
2016-12-20T08:22:35.866Z,720
2016-12-20T08:23:20.965Z,676
2016-12-20T08:24:20.984Z,656
2016-12-20T08:25:20.993Z,716
2016-12-20T08:26:21.008Z,704
2016-12-20T08:27:21.022Z,664
2016-12-20T08:28:21.035Z,664
2016-12-20T08:29:21.053Z,632
2016-12-20T08:30:21.068Z,632
2016-12-20T08:31:21.079Z,660
2016-12-20T08:32:36.011Z,680
2016-12-20T08:33:21.117Z,664
2016-12-20T08:34:21.124Z,704
2016-12-20T08:35:36.053Z,708
2016-12-20T08:36:21.460Z,736
2016-12-20T08:37:21.170Z,740
2016-12-20T08:38:21.202Z,764
2016-12-20T08:39:21.196Z,792
2016-12-20T08:40:21.209Z,820
2016-12-20T08:41:21.222Z,876
2016-12-20T08:42:36.157Z,856
2016-12-20T08:43:21.252Z,888
2016-12-20T08:44:36.187Z,892
2016-12-20T08:45:21.280Z,892
2016-12-20T08:46:21.310Z,868
2016-12-20T08:47:21.310Z,788
2016-12-20T08:48:21.324Z,820
2016-12-20T08:49:36.258Z,912
2016-12-20T08:50:36.270Z,964
2016-12-20T08:51:21.368Z,964
2016-12-20T08:52:21.419Z,960
2016-12-20T08:53:21.400Z,896
2016-12-20T08:55:21.425Z,1028
2016-12-20T08:56:21.441Z,916
2016-12-20T08:57:21.454Z,868
2016-12-20T08:58:21.476Z,872
2016-12-20T08:59:21.483Z,932
2016-12-20T09:00:21.500Z,996
2016-12-20T09:02:21.531Z,916
2016-12-20T09:03:21.541Z,956
2016-12-20T09:05:36.491Z,1032
2016-12-20T09:07:21.603Z,1004
2016-12-20T09:08:21.617Z,1036
2016-12-20T09:09:21.634Z,1004
2016-12-20T09:10:36.562Z,1100
2016-12-20T09:11:21.666Z,1096
2016-12-20T09:12:21.677Z,1140
2016-12-20T09:13:36.611Z,1108
2016-12-20T09:14:21.717Z,972
2016-12-20T09:15:21.717Z,956
2016-12-20T09:16:21.734Z,1012
2016-12-20T09:17:21.749Z,968
2016-12-20T09:18:22.068Z,1060
2016-12-20T09:19:21.783Z,1200
2016-12-20T09:20:21.791Z,1068
2016-12-20T09:22:36.742Z,1080
2016-12-20T09:23:21.834Z,1196
2016-12-20T09:24:21.852Z,1152
2016-12-20T09:25:21.868Z,1036
2016-12-20T09:26:36.800Z,1200
2016-12-20T09:27:22.198Z,1172
2016-12-20T09:28:21.914Z,1276
2016-12-20T09:29:21.925Z,1248
2016-12-20T09:30:21.939Z,1060
2016-12-20T09:31:21.955Z,1172
2016-12-20T09:32:21.973Z,1300
2016-12-20T09:33:36.900Z,1356
2016-12-20T09:34:36.918Z,1208
2016-12-20T09:35:22.012Z,1116
2016-12-20T09:37:22.046Z,1396
2016-12-20T09:38:22.060Z,1336
2016-12-20T09:39:22.074Z,1196
2016-12-20T09:40:22.089Z,1336
2016-12-20T09:41:22.110Z,1576
2016-12-20T09:42:37.035Z,1488
2016-12-20T09:43:22.139Z,1420
2016-12-20T09:44:22.151Z,1348
2016-12-20T09:45:22.161Z,1344
2016-12-20T09:46:37.096Z,1376
2016-12-20T09:47:22.193Z,1384
2016-12-20T09:48:22.206Z,1568
2016-12-20T09:49:37.138Z,1416
2016-12-20T09:50:37.158Z,1452
2016-12-20T09:51:22.248Z,1624
2016-12-20T09:52:22.264Z,1756
2016-12-20T09:53:22.308Z,1660
2016-12-20T09:56:22.325Z,1632
2016-12-20T09:57:37.260Z,1896
2016-12-20T09:58:22.354Z,1816
2016-12-20T09:59:22.371Z,1536
2016-12-20T10:00:22.384Z,1680
2016-12-20T10:01:22.404Z,1784
2016-12-20T10:02:37.637Z,1736
2016-12-20T10:03:22.432Z,1592
2016-12-20T10:04:22.446Z,1564
2016-12-20T10:05:22.460Z,1648
2016-12-20T10:08:37.422Z,1624
2016-12-20T10:10:22.533Z,1472
2016-12-20T10:11:22.547Z,1316
2016-12-20T10:12:22.566Z,1332
2016-12-20T10:13:22.582Z,1356
2016-12-20T10:14:22.701Z,1420
2016-12-20T10:15:22.612Z,1336
2016-12-20T10:16:22.627Z,1260
2016-12-20T10:17:22.642Z,1392
2016-12-20T10:18:22.662Z,1376
2016-12-20T10:19:22.666Z,1440
2016-12-20T10:20:22.682Z,1304
2016-12-20T10:21:22.699Z,1168
2016-12-20T10:24:37.660Z,1340
2016-12-20T10:25:37.674Z,1524
2016-12-20T10:26:22.772Z,1508
2016-12-20T10:27:22.793Z,1420
2016-12-20T10:28:22.802Z,1512
2016-12-20T10:29:37.741Z,1652
2016-12-20T10:30:22.832Z,1592
2016-12-20T10:31:22.849Z,1484
2016-12-20T10:32:22.863Z,1416
2016-12-20T10:33:22.879Z,1400
2016-12-20T10:34:22.895Z,1320
2016-12-20T10:35:22.909Z,1356
2016-12-20T10:36:22.926Z,1368
2016-12-20T10:37:37.854Z,1288
2016-12-20T10:38:22.950Z,1300
2016-12-20T10:39:22.968Z,1404
2016-12-20T10:41:37.920Z,1388
2016-12-20T10:43:23.033Z,1344
2016-12-20T10:44:23.043Z,1504
2016-12-20T10:45:37.978Z,1580
2016-12-20T10:46:23.106Z,1464
2016-12-20T10:47:23.392Z,1532
2016-12-20T10:48:23.102Z,1708
2016-12-20T10:49:23.121Z,1684
2016-12-20T10:50:38.053Z,1468
2016-12-20T10:51:23.148Z,1340
2016-12-20T10:52:23.166Z,1304
2016-12-20T10:53:23.178Z,1340
2016-12-20T10:54:23.200Z,1288
2016-12-20T10:55:23.231Z,1220
2016-12-20T10:56:38.143Z,1140
2016-12-20T10:57:23.244Z,1092
2016-12-20T10:58:23.257Z,1116
2016-12-20T10:59:23.271Z,1152
2016-12-20T11:00:23.592Z,1096
2016-12-20T11:01:38.217Z,984
2016-12-20T11:02:23.319Z,996
2016-12-20T11:03:23.334Z,1040
2016-12-20T11:04:23.354Z,1040
2016-12-20T11:05:23.360Z,1008
2016-12-20T11:06:23.379Z,972
2016-12-20T11:07:23.393Z,956
2016-12-20T11:08:23.407Z,1052
2016-12-20T11:09:23.421Z,1100
2016-12-20T11:10:38.357Z,1224
2016-12-20T11:11:23.453Z,1260
2016-12-20T11:12:23.779Z,1236
2016-12-20T11:13:23.485Z,1160
2016-12-20T11:14:23.498Z,1268
2016-12-20T11:15:23.514Z,1304
2016-12-20T11:16:23.532Z,1232
2016-12-20T11:17:38.465Z,1156
2016-12-20T11:18:23.587Z,1124
2016-12-20T11:19:23.610Z,1072
2016-12-20T11:20:23.589Z,1012
2016-12-20T11:21:23.606Z,980
2016-12-20T11:22:23.621Z,944
2016-12-20T11:23:23.634Z,940
2016-12-20T11:24:23.655Z,920
2016-12-20T11:25:23.667Z,892
2016-12-20T11:26:23.889Z,924
2016-12-20T11:27:23.698Z,888
2016-12-20T11:28:38.630Z,956
2016-12-20T11:30:23.749Z,980
2016-12-20T11:31:23.759Z,956
2016-12-20T11:32:38.695Z,924
2016-12-20T11:33:23.790Z,928
2016-12-20T11:34:23.809Z,912
2016-12-20T11:35:23.817Z,876
2016-12-20T11:36:23.836Z,872
2016-12-20T11:37:38.769Z,864
2016-12-20T11:38:23.865Z,836
2016-12-20T11:39:23.880Z,872
2016-12-20T11:40:23.895Z,880
2016-12-20T11:41:23.908Z,864
2016-12-20T11:42:38.846Z,976
2016-12-20T11:43:23.956Z,956
2016-12-20T11:44:23.955Z,992
2016-12-20T11:45:23.971Z,1120
2016-12-20T11:46:23.986Z,1148
2016-12-20T11:47:23.999Z,1136
2016-12-20T11:48:24.023Z,1116
2016-12-20T11:49:24.035Z,1100
2016-12-20T11:50:24.046Z,1044
2016-12-20T11:51:24.063Z,1064
2016-12-20T11:52:24.082Z,1120
2016-12-20T11:53:24.090Z,1164
2016-12-20T11:54:24.109Z,1140
2016-12-20T11:56:24.137Z,1096
2016-12-20T11:57:24.153Z,1048
2016-12-20T11:58:24.168Z,1056
2016-12-20T11:59:24.192Z,1036
2016-12-20T12:00:24.194Z,936
2016-12-20T12:01:24.214Z,888
2016-12-20T12:02:24.228Z,856
2016-12-20T12:03:24.242Z,812
2016-12-20T12:04:39.477Z,760
2016-12-20T12:05:24.274Z,740
2016-12-20T12:06:24.290Z,740
2016-12-20T12:07:39.223Z,780
2016-12-20T12:08:24.320Z,856
2016-12-20T12:09:39.250Z,792
2016-12-20T12:10:24.449Z,772
2016-12-20T12:11:24.363Z,772
2016-12-20T12:12:24.378Z,768
2016-12-20T12:13:24.394Z,732
2016-12-20T12:14:24.406Z,720
2016-12-20T12:15:24.427Z,720
2016-12-20T12:16:24.439Z,704
2016-12-20T12:17:24.483Z,748
2016-12-20T12:18:24.469Z,748
2016-12-20T12:19:24.483Z,776
2016-12-20T12:20:39.415Z,780
2016-12-20T12:21:24.515Z,796
2016-12-20T12:22:24.530Z,800
2016-12-20T12:23:24.546Z,828
2016-12-20T12:24:24.564Z,764
2016-12-20T12:25:24.571Z,728
2016-12-20T12:26:24.589Z,744
2016-12-20T12:27:24.633Z,736
2016-12-20T12:28:24.644Z,764
2016-12-20T12:29:24.634Z,776
2016-12-20T12:30:24.651Z,780
2016-12-20T12:31:24.670Z,768
2016-12-20T12:33:24.695Z,708
2016-12-20T12:34:24.711Z,784
2016-12-20T12:35:24.724Z,860
2016-12-20T12:36:39.657Z,1028
2016-12-20T12:37:24.754Z,1008
2016-12-20T12:38:24.776Z,956
2016-12-20T12:39:24.789Z,932
2016-12-20T12:40:24.798Z,912
2016-12-20T12:41:39.734Z,900
2016-12-20T12:42:24.868Z,828
2016-12-20T12:43:24.842Z,788
2016-12-20T12:44:24.886Z,820
2016-12-20T12:45:24.872Z,844
2016-12-20T12:47:24.917Z,876
2016-12-20T12:48:24.920Z,856
2016-12-20T12:49:24.938Z,840
2016-12-20T12:50:24.955Z,856
2016-12-20T12:51:24.971Z,984
2016-12-20T12:52:39.900Z,856
2016-12-20T12:53:24.994Z,800
2016-12-20T12:54:25.013Z,716
2016-12-20T12:55:25.028Z,700
2016-12-20T12:56:25.041Z,680
2016-12-20T12:57:25.057Z,668
2016-12-20T12:58:25.069Z,668
2016-12-20T12:59:25.088Z,644
2016-12-20T13:00:25.111Z,684
2016-12-20T13:01:25.119Z,660
2016-12-20T13:02:25.127Z,632
2016-12-20T13:03:25.145Z,628
2016-12-20T13:04:25.165Z,600
2016-12-20T13:05:25.178Z,636
2016-12-20T13:06:25.192Z,684
2016-12-20T13:07:40.121Z,644
2016-12-20T13:08:25.222Z,604
2016-12-20T13:09:25.244Z,632
2016-12-20T13:10:25.248Z,676
2016-12-20T13:11:25.269Z,660
2016-12-20T13:12:25.279Z,636
2016-12-20T13:13:25.546Z,660
2016-12-20T13:14:40.226Z,644
2016-12-20T13:15:25.627Z,624
2016-12-20T13:16:25.348Z,600
2016-12-20T13:17:25.977Z,556
2016-12-20T13:18:25.370Z,580
2016-12-20T13:19:25.385Z,640
2016-12-20T13:20:25.400Z,644
2016-12-20T13:21:25.413Z,632
2016-12-20T13:22:25.428Z,640
2016-12-20T13:23:25.441Z,592
2016-12-20T13:24:25.459Z,608
2016-12-20T13:25:25.471Z,580
2016-12-20T13:26:40.407Z,572
2016-12-20T13:27:25.500Z,560
2016-12-20T13:28:25.518Z,516
2016-12-20T13:29:25.531Z,544
2016-12-20T13:30:25.546Z,564
2016-12-20T13:31:25.560Z,556
2016-12-20T13:32:40.490Z,592
2016-12-20T13:33:25.596Z,592
2016-12-20T13:34:40.524Z,552
2016-12-20T13:35:25.621Z,556
2016-12-20T13:36:25.636Z,552
2016-12-20T13:37:25.650Z,548
2016-12-20T13:38:25.664Z,516
2016-12-20T13:39:40.596Z,448
2016-12-20T13:40:25.695Z,448
2016-12-20T13:41:25.741Z,428
2016-12-20T13:42:25.729Z,396
2016-12-20T13:43:25.743Z,428
2016-12-20T13:45:40.692Z,388
2016-12-20T13:46:25.783Z,400
2016-12-20T13:47:25.803Z,428
2016-12-20T13:48:26.125Z,412
2016-12-20T13:49:25.828Z,388
2016-12-20T13:51:26.166Z,396
2016-12-20T13:52:25.876Z,384
2016-12-20T13:53:25.886Z,388
2016-12-20T13:54:25.901Z,372
2016-12-20T13:55:40.834Z,368
2016-12-20T13:56:26.252Z,348
2016-12-20T13:57:25.948Z,360
2016-12-20T13:58:25.963Z,364
2016-12-20T13:59:25.978Z,360
2016-12-20T14:00:40.910Z,364
2016-12-20T14:01:40.924Z,376
2016-12-20T14:02:26.023Z,368
2016-12-20T14:03:26.036Z,364
2016-12-20T14:04:26.064Z,360
2016-12-20T14:05:26.092Z,356
2016-12-20T14:06:40.998Z,348
2016-12-20T14:07:26.099Z,376
2016-12-20T14:08:26.116Z,316
2016-12-20T14:09:26.125Z,276
2016-12-20T14:10:26.142Z,260
2016-12-20T14:11:41.074Z,244
2016-12-20T14:12:26.168Z,244
2016-12-20T14:13:26.183Z,236
2016-12-20T14:14:26.200Z,224
2016-12-20T14:15:26.215Z,236
2016-12-20T14:16:41.147Z,212
2016-12-20T14:17:26.244Z,192
2016-12-20T14:18:41.175Z,196
2016-12-20T14:20:26.289Z,176
2016-12-20T14:22:26.316Z,168
2016-12-20T14:23:26.331Z,168
2016-12-20T14:24:26.349Z,176
2016-12-20T14:25:26.398Z,156
2016-12-20T14:26:26.679Z,156
2016-12-20T14:28:26.408Z,140
2016-12-20T14:29:26.425Z,148
2016-12-20T14:30:26.437Z,140
2016-12-20T14:31:26.450Z,140
2016-12-20T14:32:26.464Z,132
2016-12-20T14:33:26.479Z,124
2016-12-20T14:34:26.495Z,124
2016-12-20T14:35:26.508Z,128
2016-12-20T14:36:26.521Z,120
2016-12-20T14:37:26.537Z,108
2016-12-20T14:38:41.470Z,100
2016-12-20T14:40:26.584Z,100
2016-12-20T14:41:26.592Z,88
2016-12-20T14:42:41.532Z,80
2016-12-20T14:43:26.628Z,76
2016-12-20T14:44:26.638Z,72
2016-12-20T14:45:26.653Z,72
2016-12-20T14:46:26.673Z,68
2016-12-20T14:47:41.602Z,60
2016-12-20T14:48:26.699Z,60
2016-12-20T14:49:26.716Z,56
2016-12-20T14:50:26.757Z,56
2016-12-20T14:51:41.666Z,44
2016-12-20T14:52:26.761Z,44
2016-12-20T14:53:41.720Z,40
2016-12-20T14:55:26.807Z,36
2016-12-20T14:56:26.829Z,36
2016-12-20T14:57:26.833Z,32
2016-12-20T14:58:27.152Z,28
2016-12-20T14:59:26.875Z,24
2016-12-20T15:00:26.880Z,24
2016-12-20T15:01:26.891Z,24
2016-12-20T15:02:26.910Z,20
2016-12-20T15:03:26.921Z,16
2016-12-20T15:04:27.247Z,16
2016-12-20T15:05:26.953Z,12